sensor_id;sensor_type;location;lat;lon;timestamp;temperature;humidity
13896;DHT22;7018;50.838;4.226;2022-08-21T00:00:52;16.30;99.90
13896;DHT22;7018;50.838;4.226;2022-08-21T00:03:21;16.30;99.90
13896;DHT22;7018;50.838;4.226;2022-08-21T00:05:50;16.20;99.90
13896;DHT22;7018;50.838;4.226;2022-08-21T00:08:19;16.20;99.90
13896;DHT22;7018;50.838;4.226;2022-08-21T00:10:49;16.20;99.90
13896;DHT22;7018;50.838;4.226;2022-08-21T00:13:18;16.10;99.90
13896;DHT22;7018;50.838;4.226;2022-08-21T00:15:48;16.10;99.90
13896;DHT22;7018;50.838;4.226;2022-08-21T00:18:17;16.10;99.90
13896;DHT22;7018;50.838;4.226;2022-08-21T00:20:46;16.10;99.90
13896;DHT22;7018;50.838;4.226;2022-08-21T00:23:15;16.20;99.90
13896;DHT22;7018;50.838;4.226;2022-08-21T00:25:43;16.00;99.90
13896;DHT22;7018;50.838;4.226;2022-08-21T00:28:11;15.90;99.90
13896;DHT22;7018;50.838;4.226;2022-08-21T00:30:40;15.80;99.90
13896;DHT22;7018;50.838;4.226;2022-08-21T00:33:09;15.70;99.90
13896;DHT22;7018;50.838;4.226;2022-08-21T00:35:39;15.70;99.90
13896;DHT22;7018;50.838;4.226;2022-08-21T00:38:07;15.80;99.90
13896;DHT22;7018;50.838;4.226;2022-08-21T00:40:43;15.80;99.90
13896;DHT22;7018;50.838;4.226;2022-08-21T00:43:14;15.70;99.90
13896;DHT22;7018;50.838;4.226;2022-08-21T00:45:42;15.70;99.90
13896;DHT22;7018;50.838;4.226;2022-08-21T00:48:10;15.70;99.90
13896;DHT22;7018;50.838;4.226;2022-08-21T00:50:42;15.70;99.90
13896;DHT22;7018;50.838;4.226;2022-08-21T00:53:11;15.70;99.90
13896;DHT22;7018;50.838;4.226;2022-08-21T00:55:39;15.60;99.90
13896;DHT22;7018;50.838;4.226;2022-08-21T00:58:10;15.50;99.90
13896;DHT22;7018;50.838;4.226;2022-08-21T01:00:41;15.40;99.90
13896;DHT22;7018;50.838;4.226;2022-08-21T01:03:12;15.40;99.90
13896;DHT22;7018;50.838;4.226;2022-08-21T01:05:42;15.30;99.90
13896;DHT22;7018;50.838;4.226;2022-08-21T01:08:10;15.30;99.90
13896;DHT22;7018;50.838;4.226;2022-08-21T01:10:38;15.40;99.90
13896;DHT22;7018;50.838;4.226;2022-08-21T01:13:07;15.30;99.90
13896;DHT22;7018;50.838;4.226;2022-08-21T01:15:40;15.30;99.90
13896;DHT22;7018;50.838;4.226;2022-08-21T01:18:11;15.20;99.90
13896;DHT22;7018;50.838;4.226;2022-08-21T01:20:43;15.20;99.90
13896;DHT22;7018;50.838;4.226;2022-08-21T01:23:11;15.20;99.90
13896;DHT22;7018;50.838;4.226;2022-08-21T01:25:38;15.10;99.90
13896;DHT22;7018;50.838;4.226;2022-08-21T01:28:12;15.10;99.90
13896;DHT22;7018;50.838;4.226;2022-08-21T01:30:43;15.10;99.90
13896;DHT22;7018;50.838;4.226;2022-08-21T01:33:11;14.90;99.90
13896;DHT22;7018;50.838;4.226;2022-08-21T01:35:38;14.90;99.90
13896;DHT22;7018;50.838;4.226;2022-08-21T01:38:06;14.90;99.90
13896;DHT22;7018;50.838;4.226;2022-08-21T01:40:33;14.90;99.90
13896;DHT22;7018;50.838;4.226;2022-08-21T01:43:01;14.90;99.90
13896;DHT22;7018;50.838;4.226;2022-08-21T01:45:30;14.90;99.90
13896;DHT22;7018;50.838;4.226;2022-08-21T01:47:58;14.90;99.90
13896;DHT22;7018;50.838;4.226;2022-08-21T01:50:25;14.90;99.90
13896;DHT22;7018;50.838;4.226;2022-08-21T01:52:53;14.80;99.90
13896;DHT22;7018;50.838;4.226;2022-08-21T01:55:23;14.70;99.90
13896;DHT22;7018;50.838;4.226;2022-08-21T01:57:51;14.70;99.90
13896;DHT22;7018;50.838;4.226;2022-08-21T02:00:21;14.70;99.90
13896;DHT22;7018;50.838;4.226;2022-08-21T02:02:52;14.70;99.90
13896;DHT22;7018;50.838;4.226;2022-08-21T02:05:20;14.70;99.90
13896;DHT22;7018;50.838;4.226;2022-08-21T02:07:50;14.70;99.90
13896;DHT22;7018;50.838;4.226;2022-08-21T02:10:22;14.60;99.90
13896;DHT22;7018;50.838;4.226;2022-08-21T02:12:50;14.60;99.90
13896;DHT22;7018;50.838;4.226;2022-08-21T02:15:18;14.60;99.90
13896;DHT22;7018;50.838;4.226;2022-08-21T02:17:50;14.60;99.90
13896;DHT22;7018;50.838;4.226;2022-08-21T02:20:27;14.60;99.90
13896;DHT22;7018;50.838;4.226;2022-08-21T02:22:55;14.60;99.90
13896;DHT22;7018;50.838;4.226;2022-08-21T02:25:25;14.50;99.90
13896;DHT22;7018;50.838;4.226;2022-08-21T02:27:54;14.50;99.90
13896;DHT22;7018;50.838;4.226;2022-08-21T02:30:27;14.50;99.90
13896;DHT22;7018;50.838;4.226;2022-08-21T02:32:57;14.50;99.90
13896;DHT22;7018;50.838;4.226;2022-08-21T02:35:26;14.40;99.90
13896;DHT22;7018;50.838;4.226;2022-08-21T02:38:01;14.30;99.90
13896;DHT22;7018;50.838;4.226;2022-08-21T02:40:32;14.30;99.90
13896;DHT22;7018;50.838;4.226;2022-08-21T02:43:03;14.20;99.90
13896;DHT22;7018;50.838;4.226;2022-08-21T02:45:31;14.20;99.90
13896;DHT22;7018;50.838;4.226;2022-08-21T02:48:03;14.20;99.90
13896;DHT22;7018;50.838;4.226;2022-08-21T02:50:36;14.20;99.90
13896;DHT22;7018;50.838;4.226;2022-08-21T02:53:05;14.20;99.90
13896;DHT22;7018;50.838;4.226;2022-08-21T02:55:34;14.20;99.90
13896;DHT22;7018;50.838;4.226;2022-08-21T02:58:05;14.20;99.90
13896;DHT22;7018;50.838;4.226;2022-08-21T03:00:35;14.10;99.90
13896;DHT22;7018;50.838;4.226;2022-08-21T03:03:03;14.10;99.90
13896;DHT22;7018;50.838;4.226;2022-08-21T03:05:32;14.00;99.90
13896;DHT22;7018;50.838;4.226;2022-08-21T03:08:01;13.90;99.90
13896;DHT22;7018;50.838;4.226;2022-08-21T03:10:29;13.80;99.90
13896;DHT22;7018;50.838;4.226;2022-08-21T03:12:58;13.70;99.90
13896;DHT22;7018;50.838;4.226;2022-08-21T03:15:25;13.60;99.90
13896;DHT22;7018;50.838;4.226;2022-08-21T03:17:53;13.70;99.90
13896;DHT22;7018;50.838;4.226;2022-08-21T03:20:25;13.70;99.90
13896;DHT22;7018;50.838;4.226;2022-08-21T03:22:54;13.70;99.90
13896;DHT22;7018;50.838;4.226;2022-08-21T03:25:22;13.70;99.90
13896;DHT22;7018;50.838;4.226;2022-08-21T03:27:50;13.60;99.90
13896;DHT22;7018;50.838;4.226;2022-08-21T03:30:21;13.60;99.90
13896;DHT22;7018;50.838;4.226;2022-08-21T03:32:50;13.70;99.90
13896;DHT22;7018;50.838;4.226;2022-08-21T03:35:18;13.70;99.90
13896;DHT22;7018;50.838;4.226;2022-08-21T03:37:46;13.60;99.90
13896;DHT22;7018;50.838;4.226;2022-08-21T03:40:16;13.60;99.90
13896;DHT22;7018;50.838;4.226;2022-08-21T03:42:45;13.60;99.90
13896;DHT22;7018;50.838;4.226;2022-08-21T03:45:17;13.60;99.90
13896;DHT22;7018;50.838;4.226;2022-08-21T03:47:58;13.60;99.90
13896;DHT22;7018;50.838;4.226;2022-08-21T03:50:29;13.70;99.90
13896;DHT22;7018;50.838;4.226;2022-08-21T03:52:57;13.60;99.90
13896;DHT22;7018;50.838;4.226;2022-08-21T03:55:25;13.70;99.90
13896;DHT22;7018;50.838;4.226;2022-08-21T03:57:53;13.60;99.90
13896;DHT22;7018;50.838;4.226;2022-08-21T04:00:21;13.60;99.90
13896;DHT22;7018;50.838;4.226;2022-08-21T04:02:49;13.50;99.90
13896;DHT22;7018;50.838;4.226;2022-08-21T04:05:18;13.50;99.90
13896;DHT22;7018;50.838;4.226;2022-08-21T04:08:00;13.50;99.90
13896;DHT22;7018;50.838;4.226;2022-08-21T04:10:30;13.50;99.90
13896;DHT22;7018;50.838;4.226;2022-08-21T04:12:58;13.50;99.90
13896;DHT22;7018;50.838;4.226;2022-08-21T04:15:26;13.50;99.90
13896;DHT22;7018;50.838;4.226;2022-08-21T04:17:54;13.50;99.90
13896;DHT22;7018;50.838;4.226;2022-08-21T04:20:22;13.50;99.90
13896;DHT22;7018;50.838;4.226;2022-08-21T04:22:50;13.30;99.90
13896;DHT22;7018;50.838;4.226;2022-08-21T04:25:21;13.30;99.90
13896;DHT22;7018;50.838;4.226;2022-08-21T04:27:48;13.20;99.90
13896;DHT22;7018;50.838;4.226;2022-08-21T04:30:16;13.30;99.90
13896;DHT22;7018;50.838;4.226;2022-08-21T04:32:48;13.30;99.90
13896;DHT22;7018;50.838;4.226;2022-08-21T04:35:18;13.40;99.90
13896;DHT22;7018;50.838;4.226;2022-08-21T04:37:47;13.50;99.90
13896;DHT22;7018;50.838;4.226;2022-08-21T04:40:17;13.50;99.90
13896;DHT22;7018;50.838;4.226;2022-08-21T04:42:50;13.50;99.90
13896;DHT22;7018;50.838;4.226;2022-08-21T04:45:21;13.50;99.90
13896;DHT22;7018;50.838;4.226;2022-08-21T04:47:53;13.50;99.90
13896;DHT22;7018;50.838;4.226;2022-08-21T04:50:41;13.50;99.90
13896;DHT22;7018;50.838;4.226;2022-08-21T04:56:01;13.50;99.90
13896;DHT22;7018;50.838;4.226;2022-08-21T04:58:30;13.50;99.90
13896;DHT22;7018;50.838;4.226;2022-08-21T05:01:02;13.50;99.90
13896;DHT22;7018;50.838;4.226;2022-08-21T05:03:32;13.60;99.90
13896;DHT22;7018;50.838;4.226;2022-08-21T05:06:00;13.60;99.90
13896;DHT22;7018;50.838;4.226;2022-08-21T05:08:30;13.60;99.90
13896;DHT22;7018;50.838;4.226;2022-08-21T05:10:58;13.60;99.90
13896;DHT22;7018;50.838;4.226;2022-08-21T05:13:26;13.60;99.90
13896;DHT22;7018;50.838;4.226;2022-08-21T05:15:53;13.60;99.90
13896;DHT22;7018;50.838;4.226;2022-08-21T05:18:21;13.60;99.90
13896;DHT22;7018;50.838;4.226;2022-08-21T05:20:48;13.50;99.90
13896;DHT22;7018;50.838;4.226;2022-08-21T05:23:17;13.50;99.90
13896;DHT22;7018;50.838;4.226;2022-08-21T05:25:44;13.50;99.90
13896;DHT22;7018;50.838;4.226;2022-08-21T05:28:12;13.50;99.90
13896;DHT22;7018;50.838;4.226;2022-08-21T05:30:40;13.50;99.90
13896;DHT22;7018;50.838;4.226;2022-08-21T05:33:08;13.70;99.90
13896;DHT22;7018;50.838;4.226;2022-08-21T05:35:36;13.80;99.90
13896;DHT22;7018;50.838;4.226;2022-08-21T05:38:05;13.80;99.90
13896;DHT22;7018;50.838;4.226;2022-08-21T05:40:33;13.90;99.90
13896;DHT22;7018;50.838;4.226;2022-08-21T05:43:01;13.90;99.90
13896;DHT22;7018;50.838;4.226;2022-08-21T05:45:32;14.00;99.90
13896;DHT22;7018;50.838;4.226;2022-08-21T05:48:08;14.10;99.90
13896;DHT22;7018;50.838;4.226;2022-08-21T05:50:36;14.20;99.90
13896;DHT22;7018;50.838;4.226;2022-08-21T05:53:06;14.30;99.90
13896;DHT22;7018;50.838;4.226;2022-08-21T05:55:35;14.40;99.90
13896;DHT22;7018;50.838;4.226;2022-08-21T05:58:05;14.50;99.90
13896;DHT22;7018;50.838;4.226;2022-08-21T06:00:32;14.60;99.90
13896;DHT22;7018;50.838;4.226;2022-08-21T06:03:00;14.70;99.90
13896;DHT22;7018;50.838;4.226;2022-08-21T06:05:28;14.80;99.90
13896;DHT22;7018;50.838;4.226;2022-08-21T06:07:55;14.80;99.90
13896;DHT22;7018;50.838;4.226;2022-08-21T06:10:23;14.90;99.90
13896;DHT22;7018;50.838;4.226;2022-08-21T06:12:54;15.00;99.90
13896;DHT22;7018;50.838;4.226;2022-08-21T06:15:22;15.20;99.90
13896;DHT22;7018;50.838;4.226;2022-08-21T06:17:50;15.20;99.90
13896;DHT22;7018;50.838;4.226;2022-08-21T06:20:17;15.20;99.90
13896;DHT22;7018;50.838;4.226;2022-08-21T06:22:45;15.30;99.90
13896;DHT22;7018;50.838;4.226;2022-08-21T06:25:13;15.40;99.90
13896;DHT22;7018;50.838;4.226;2022-08-21T06:27:40;15.60;99.90
13896;DHT22;7018;50.838;4.226;2022-08-21T06:30:09;15.70;99.90
13896;DHT22;7018;50.838;4.226;2022-08-21T06:32:37;15.90;99.90
13896;DHT22;7018;50.838;4.226;2022-08-21T06:35:06;16.00;99.90
13896;DHT22;7018;50.838;4.226;2022-08-21T06:37:34;16.00;99.90
13896;DHT22;7018;50.838;4.226;2022-08-21T06:40:04;16.00;99.90
13896;DHT22;7018;50.838;4.226;2022-08-21T06:42:33;15.90;99.90
13896;DHT22;7018;50.838;4.226;2022-08-21T06:45:01;16.10;99.90
13896;DHT22;7018;50.838;4.226;2022-08-21T06:47:28;16.30;99.90
13896;DHT22;7018;50.838;4.226;2022-08-21T06:49:56;16.40;99.90
13896;DHT22;7018;50.838;4.226;2022-08-21T06:52:24;16.50;99.90
13896;DHT22;7018;50.838;4.226;2022-08-21T06:54:51;16.70;99.90
13896;DHT22;7018;50.838;4.226;2022-08-21T06:57:19;16.80;99.90
13896;DHT22;7018;50.838;4.226;2022-08-21T06:59:47;16.90;99.90
13896;DHT22;7018;50.838;4.226;2022-08-21T07:02:15;17.10;99.90
13896;DHT22;7018;50.838;4.226;2022-08-21T07:04:43;17.30;99.90
13896;DHT22;7018;50.838;4.226;2022-08-21T07:07:11;17.50;99.90
13896;DHT22;7018;50.838;4.226;2022-08-21T07:09:38;17.70;99.90
13896;DHT22;7018;50.838;4.226;2022-08-21T07:12:06;17.80;99.90
13896;DHT22;7018;50.838;4.226;2022-08-21T07:14:34;17.90;99.90
13896;DHT22;7018;50.838;4.226;2022-08-21T07:17:02;18.00;99.90
13896;DHT22;7018;50.838;4.226;2022-08-21T07:19:29;18.10;99.90
13896;DHT22;7018;50.838;4.226;2022-08-21T07:21:59;18.20;99.90
13896;DHT22;7018;50.838;4.226;2022-08-21T07:24:27;18.20;99.90
13896;DHT22;7018;50.838;4.226;2022-08-21T07:26:55;18.30;99.90
13896;DHT22;7018;50.838;4.226;2022-08-21T07:29:22;18.20;99.90
13896;DHT22;7018;50.838;4.226;2022-08-21T07:31:50;18.30;99.90
13896;DHT22;7018;50.838;4.226;2022-08-21T07:34:17;18.50;99.90
13896;DHT22;7018;50.838;4.226;2022-08-21T07:36:45;18.60;99.90
13896;DHT22;7018;50.838;4.226;2022-08-21T07:39:14;18.70;99.90
13896;DHT22;7018;50.838;4.226;2022-08-21T07:41:41;18.80;99.90
13896;DHT22;7018;50.838;4.226;2022-08-21T07:44:08;18.90;99.90
13896;DHT22;7018;50.838;4.226;2022-08-21T07:46:36;19.00;99.90
13896;DHT22;7018;50.838;4.226;2022-08-21T07:49:04;19.10;99.90
13896;DHT22;7018;50.838;4.226;2022-08-21T07:51:32;19.10;99.90
13896;DHT22;7018;50.838;4.226;2022-08-21T07:54:00;19.20;99.90
13896;DHT22;7018;50.838;4.226;2022-08-21T07:56:29;19.30;99.90
13896;DHT22;7018;50.838;4.226;2022-08-21T07:58:57;19.40;99.90
13896;DHT22;7018;50.838;4.226;2022-08-21T08:01:25;19.50;99.90
13896;DHT22;7018;50.838;4.226;2022-08-21T08:03:52;19.50;99.90
13896;DHT22;7018;50.838;4.226;2022-08-21T08:06:20;19.50;99.90
13896;DHT22;7018;50.838;4.226;2022-08-21T08:08:48;19.40;99.90
13896;DHT22;7018;50.838;4.226;2022-08-21T08:11:15;19.30;99.90
13896;DHT22;7018;50.838;4.226;2022-08-21T08:13:48;19.30;99.90
13896;DHT22;7018;50.838;4.226;2022-08-21T08:16:16;19.40;99.90
13896;DHT22;7018;50.838;4.226;2022-08-21T08:18:44;19.30;99.90
13896;DHT22;7018;50.838;4.226;2022-08-21T08:21:14;19.40;99.90
13896;DHT22;7018;50.838;4.226;2022-08-21T08:23:42;19.40;99.90
13896;DHT22;7018;50.838;4.226;2022-08-21T08:26:11;19.50;99.90
13896;DHT22;7018;50.838;4.226;2022-08-21T08:28:38;19.50;99.90
13896;DHT22;7018;50.838;4.226;2022-08-21T08:31:06;19.60;99.90
13896;DHT22;7018;50.838;4.226;2022-08-21T08:33:34;19.60;99.90
13896;DHT22;7018;50.838;4.226;2022-08-21T08:36:01;19.70;99.90
13896;DHT22;7018;50.838;4.226;2022-08-21T08:38:32;19.70;99.90
13896;DHT22;7018;50.838;4.226;2022-08-21T08:41:12;19.80;99.90
13896;DHT22;7018;50.838;4.226;2022-08-21T08:43:44;19.90;99.90
13896;DHT22;7018;50.838;4.226;2022-08-21T08:46:15;19.90;99.90
13896;DHT22;7018;50.838;4.226;2022-08-21T08:48:49;19.90;99.90
13896;DHT22;7018;50.838;4.226;2022-08-21T08:54:26;20.20;99.90
13896;DHT22;7018;50.838;4.226;2022-08-21T08:57:02;20.10;99.90
13896;DHT22;7018;50.838;4.226;2022-08-21T08:59:45;20.10;99.90
13896;DHT22;7018;50.838;4.226;2022-08-21T09:02:17;20.20;99.90
13896;DHT22;7018;50.838;4.226;2022-08-21T09:04:47;20.30;99.90
13896;DHT22;7018;50.838;4.226;2022-08-21T09:15:30;20.50;99.90
13896;DHT22;7018;50.838;4.226;2022-08-21T09:18:11;20.60;99.90
13896;DHT22;7018;50.838;4.226;2022-08-21T09:21:02;20.60;99.90
13896;DHT22;7018;50.838;4.226;2022-08-21T09:23:54;20.90;99.90
13896;DHT22;7018;50.838;4.226;2022-08-21T09:26:44;21.00;99.90
13896;DHT22;7018;50.838;4.226;2022-08-21T09:29:20;21.20;99.90
13896;DHT22;7018;50.838;4.226;2022-08-21T09:31:49;21.50;99.90
13896;DHT22;7018;50.838;4.226;2022-08-21T09:34:30;21.70;99.90
13896;DHT22;7018;50.838;4.226;2022-08-21T09:36:59;21.80;99.90
13896;DHT22;7018;50.838;4.226;2022-08-21T09:39:37;22.20;99.90
13896;DHT22;7018;50.838;4.226;2022-08-21T09:42:08;22.40;99.90
13896;DHT22;7018;50.838;4.226;2022-08-21T09:44:40;22.60;99.90
13896;DHT22;7018;50.838;4.226;2022-08-21T09:47:11;22.60;99.90
13896;DHT22;7018;50.838;4.226;2022-08-21T09:49:42;22.40;99.90
13896;DHT22;7018;50.838;4.226;2022-08-21T09:52:20;22.30;99.90
13896;DHT22;7018;50.838;4.226;2022-08-21T09:54:53;22.20;99.90
13896;DHT22;7018;50.838;4.226;2022-08-21T09:57:30;22.30;99.90
13896;DHT22;7018;50.838;4.226;2022-08-21T10:00:29;22.20;99.90
13896;DHT22;7018;50.838;4.226;2022-08-21T10:03:13;22.10;99.90
13896;DHT22;7018;50.838;4.226;2022-08-21T10:05:51;22.00;99.90
13896;DHT22;7018;50.838;4.226;2022-08-21T10:08:21;21.90;99.90
13896;DHT22;7018;50.838;4.226;2022-08-21T10:10:57;21.90;99.90
13896;DHT22;7018;50.838;4.226;2022-08-21T10:13:38;22.00;99.90
13896;DHT22;7018;50.838;4.226;2022-08-21T10:21:41;22.40;99.90
13896;DHT22;7018;50.838;4.226;2022-08-21T10:24:29;22.50;99.90
13896;DHT22;7018;50.838;4.226;2022-08-21T10:32:37;22.60;99.90
13896;DHT22;7018;50.838;4.226;2022-08-21T10:35:13;22.80;99.90
13896;DHT22;7018;50.838;4.226;2022-08-21T10:40:22;23.30;99.90
13896;DHT22;7018;50.838;4.226;2022-08-21T10:55:00;23.10;99.90
13896;DHT22;7018;50.838;4.226;2022-08-21T11:00:26;23.20;99.90
13896;DHT22;7018;50.838;4.226;2022-08-21T11:03:32;23.50;99.90
13896;DHT22;7018;50.838;4.226;2022-08-21T11:06:06;23.50;99.90
13896;DHT22;7018;50.838;4.226;2022-08-21T11:08:42;23.50;99.90
13896;DHT22;7018;50.838;4.226;2022-08-21T11:11:16;23.70;99.90
13896;DHT22;7018;50.838;4.226;2022-08-21T11:16:46;23.70;99.90
13896;DHT22;7018;50.838;4.226;2022-08-21T11:30:10;23.20;99.90
13896;DHT22;7018;50.838;4.226;2022-08-21T11:43:40;23.10;99.90
13896;DHT22;7018;50.838;4.226;2022-08-21T11:52:33;23.00;99.90
13896;DHT22;7018;50.838;4.226;2022-08-21T12:00:28;23.50;99.90
13896;DHT22;7018;50.838;4.226;2022-08-21T12:03:05;23.70;99.90
13896;DHT22;7018;50.838;4.226;2022-08-21T12:05:38;23.80;99.90
13896;DHT22;7018;50.838;4.226;2022-08-21T12:10:40;24.20;99.90
13896;DHT22;7018;50.838;4.226;2022-08-21T12:13:21;24.60;99.90
13896;DHT22;7018;50.838;4.226;2022-08-21T12:15:49;24.70;99.90
13896;DHT22;7018;50.838;4.226;2022-08-21T12:18:29;24.70;99.90
13896;DHT22;7018;50.838;4.226;2022-08-21T12:21:05;24.50;99.90
13896;DHT22;7018;50.838;4.226;2022-08-21T12:23:46;24.50;99.90
13896;DHT22;7018;50.838;4.226;2022-08-21T12:26:17;24.50;99.90
13896;DHT22;7018;50.838;4.226;2022-08-21T12:28:47;24.30;99.90
13896;DHT22;7018;50.838;4.226;2022-08-21T12:31:24;24.30;99.90
13896;DHT22;7018;50.838;4.226;2022-08-21T12:33:58;24.30;99.90
13896;DHT22;7018;50.838;4.226;2022-08-21T12:36:46;24.30;99.90
13896;DHT22;7018;50.838;4.226;2022-08-21T12:39:22;24.30;99.90
13896;DHT22;7018;50.838;4.226;2022-08-21T12:44:50;23.80;99.90
13896;DHT22;7018;50.838;4.226;2022-08-21T12:47:29;23.80;99.90
13896;DHT22;7018;50.838;4.226;2022-08-21T12:50:13;23.90;99.90
13896;DHT22;7018;50.838;4.226;2022-08-21T12:52:51;23.90;99.90
13896;DHT22;7018;50.838;4.226;2022-08-21T12:55:28;23.90;99.90
13896;DHT22;7018;50.838;4.226;2022-08-21T12:57:56;23.80;99.90
13896;DHT22;7018;50.838;4.226;2022-08-21T13:00:26;23.80;99.90
13896;DHT22;7018;50.838;4.226;2022-08-21T13:02:55;23.90;99.90
13896;DHT22;7018;50.838;4.226;2022-08-21T13:05:35;24.20;99.90
13896;DHT22;7018;50.838;4.226;2022-08-21T13:08:05;24.30;99.90
13896;DHT22;7018;50.838;4.226;2022-08-21T13:10:33;24.20;99.90
13896;DHT22;7018;50.838;4.226;2022-08-21T13:13:08;24.20;99.90
13896;DHT22;7018;50.838;4.226;2022-08-21T13:15:39;24.30;99.90
13896;DHT22;7018;50.838;4.226;2022-08-21T13:18:07;24.40;99.90
13896;DHT22;7018;50.838;4.226;2022-08-21T13:20:39;24.60;99.90
13896;DHT22;7018;50.838;4.226;2022-08-21T13:23:28;24.70;99.90
13896;DHT22;7018;50.838;4.226;2022-08-21T13:25:56;24.80;99.90
13896;DHT22;7018;50.838;4.226;2022-08-21T13:28:32;24.70;99.90
13896;DHT22;7018;50.838;4.226;2022-08-21T13:31:00;24.50;99.90
13896;DHT22;7018;50.838;4.226;2022-08-21T13:33:31;24.50;99.90
13896;DHT22;7018;50.838;4.226;2022-08-21T13:36:07;24.40;99.90
13896;DHT22;7018;50.838;4.226;2022-08-21T13:38:39;24.20;99.90
13896;DHT22;7018;50.838;4.226;2022-08-21T13:41:19;24.20;99.90
13896;DHT22;7018;50.838;4.226;2022-08-21T13:43:58;24.20;99.90
13896;DHT22;7018;50.838;4.226;2022-08-21T13:46:29;24.30;99.90
13896;DHT22;7018;50.838;4.226;2022-08-21T13:48:59;24.20;99.90
13896;DHT22;7018;50.838;4.226;2022-08-21T13:51:27;24.10;99.90
13896;DHT22;7018;50.838;4.226;2022-08-21T13:53:55;24.10;99.90
13896;DHT22;7018;50.838;4.226;2022-08-21T13:56:40;24.30;99.90
13896;DHT22;7018;50.838;4.226;2022-08-21T13:59:08;24.30;99.90
13896;DHT22;7018;50.838;4.226;2022-08-21T14:01:59;24.20;99.90
13896;DHT22;7018;50.838;4.226;2022-08-21T14:04:36;24.20;99.90
13896;DHT22;7018;50.838;4.226;2022-08-21T14:07:26;24.10;99.90
13896;DHT22;7018;50.838;4.226;2022-08-21T14:09:54;24.20;99.90
13896;DHT22;7018;50.838;4.226;2022-08-21T14:12:29;24.20;99.90
13896;DHT22;7018;50.838;4.226;2022-08-21T14:14:58;24.20;99.90
13896;DHT22;7018;50.838;4.226;2022-08-21T14:17:35;24.20;99.90
13896;DHT22;7018;50.838;4.226;2022-08-21T14:20:05;24.30;99.90
13896;DHT22;7018;50.838;4.226;2022-08-21T14:22:41;24.40;99.90
13896;DHT22;7018;50.838;4.226;2022-08-21T14:27:58;24.70;99.90
13896;DHT22;7018;50.838;4.226;2022-08-21T14:30:33;25.00;99.90
13896;DHT22;7018;50.838;4.226;2022-08-21T14:33:03;25.20;99.90
13896;DHT22;7018;50.838;4.226;2022-08-21T14:35:31;25.40;99.90
13896;DHT22;7018;50.838;4.226;2022-08-21T14:37:58;25.60;99.90
13896;DHT22;7018;50.838;4.226;2022-08-21T14:40:26;25.80;99.90
13896;DHT22;7018;50.838;4.226;2022-08-21T14:42:53;25.80;99.90
13896;DHT22;7018;50.838;4.226;2022-08-21T14:45:28;25.80;99.90
13896;DHT22;7018;50.838;4.226;2022-08-21T14:47:57;25.80;99.90
13896;DHT22;7018;50.838;4.226;2022-08-21T14:50:25;25.80;99.90
13896;DHT22;7018;50.838;4.226;2022-08-21T14:52:52;26.00;99.90
13896;DHT22;7018;50.838;4.226;2022-08-21T14:55:19;25.90;99.90
13896;DHT22;7018;50.838;4.226;2022-08-21T14:57:52;25.70;99.90
13896;DHT22;7018;50.838;4.226;2022-08-21T15:00:22;25.70;99.90
13896;DHT22;7018;50.838;4.226;2022-08-21T15:02:51;25.50;99.90
13896;DHT22;7018;50.838;4.226;2022-08-21T15:05:19;25.50;99.90
13896;DHT22;7018;50.838;4.226;2022-08-21T15:07:46;25.40;99.90
13896;DHT22;7018;50.838;4.226;2022-08-21T15:10:14;25.30;99.90
13896;DHT22;7018;50.838;4.226;2022-08-21T15:12:41;25.30;99.90
13896;DHT22;7018;50.838;4.226;2022-08-21T15:15:08;25.20;99.90
13896;DHT22;7018;50.838;4.226;2022-08-21T15:17:36;25.10;99.90
13896;DHT22;7018;50.838;4.226;2022-08-21T15:20:04;25.00;99.90
13896;DHT22;7018;50.838;4.226;2022-08-21T15:22:32;24.90;99.90
13896;DHT22;7018;50.838;4.226;2022-08-21T15:25:00;24.90;99.90
13896;DHT22;7018;50.838;4.226;2022-08-21T15:27:29;25.00;99.90
13896;DHT22;7018;50.838;4.226;2022-08-21T15:29:56;25.00;99.90
13896;DHT22;7018;50.838;4.226;2022-08-21T15:32:27;24.90;99.90
13896;DHT22;7018;50.838;4.226;2022-08-21T15:34:56;24.90;99.90
13896;DHT22;7018;50.838;4.226;2022-08-21T15:37:25;24.90;99.90
13896;DHT22;7018;50.838;4.226;2022-08-21T15:39:53;24.90;99.90
13896;DHT22;7018;50.838;4.226;2022-08-21T15:42:21;25.10;99.90
13896;DHT22;7018;50.838;4.226;2022-08-21T15:44:48;25.00;99.90
13896;DHT22;7018;50.838;4.226;2022-08-21T15:47:18;25.10;99.90
13896;DHT22;7018;50.838;4.226;2022-08-21T15:49:46;25.20;99.90
13896;DHT22;7018;50.838;4.226;2022-08-21T15:52:16;25.20;99.90
13896;DHT22;7018;50.838;4.226;2022-08-21T15:54:44;25.20;99.90
13896;DHT22;7018;50.838;4.226;2022-08-21T15:57:18;25.10;99.90
13896;DHT22;7018;50.838;4.226;2022-08-21T15:59:49;25.00;99.90
13896;DHT22;7018;50.838;4.226;2022-08-21T16:02:26;25.20;99.90
13896;DHT22;7018;50.838;4.226;2022-08-21T16:04:54;25.20;99.90
13896;DHT22;7018;50.838;4.226;2022-08-21T16:07:21;25.20;99.90
13896;DHT22;7018;50.838;4.226;2022-08-21T16:09:48;25.20;99.90
13896;DHT22;7018;50.838;4.226;2022-08-21T16:12:30;25.20;99.90
13896;DHT22;7018;50.838;4.226;2022-08-21T16:15:01;25.30;99.90
13896;DHT22;7018;50.838;4.226;2022-08-21T16:17:32;25.20;99.90
13896;DHT22;7018;50.838;4.226;2022-08-21T16:20:06;25.10;99.90
13896;DHT22;7018;50.838;4.226;2022-08-21T16:22:34;25.00;99.90
13896;DHT22;7018;50.838;4.226;2022-08-21T16:25:02;25.00;99.90
13896;DHT22;7018;50.838;4.226;2022-08-21T16:27:29;25.00;99.90
13896;DHT22;7018;50.838;4.226;2022-08-21T16:29:57;25.10;99.90
13896;DHT22;7018;50.838;4.226;2022-08-21T16:32:24;25.20;99.90
13896;DHT22;7018;50.838;4.226;2022-08-21T16:34:51;25.30;99.90
13896;DHT22;7018;50.838;4.226;2022-08-21T16:37:19;25.40;99.90
13896;DHT22;7018;50.838;4.226;2022-08-21T16:39:46;25.40;99.90
13896;DHT22;7018;50.838;4.226;2022-08-21T16:42:18;25.20;99.90
13896;DHT22;7018;50.838;4.226;2022-08-21T16:44:47;25.10;99.90
13896;DHT22;7018;50.838;4.226;2022-08-21T16:47:14;25.00;99.90
13896;DHT22;7018;50.838;4.226;2022-08-21T16:49:42;25.00;99.90
13896;DHT22;7018;50.838;4.226;2022-08-21T16:52:09;24.70;99.90
13896;DHT22;7018;50.838;4.226;2022-08-21T16:54:37;24.70;99.90
13896;DHT22;7018;50.838;4.226;2022-08-21T16:57:05;24.80;99.90
13896;DHT22;7018;50.838;4.226;2022-08-21T16:59:32;24.70;99.90
13896;DHT22;7018;50.838;4.226;2022-08-21T17:02:00;24.50;99.90
13896;DHT22;7018;50.838;4.226;2022-08-21T17:04:27;24.50;99.90
13896;DHT22;7018;50.838;4.226;2022-08-21T17:06:56;24.40;99.90
13896;DHT22;7018;50.838;4.226;2022-08-21T17:09:23;24.30;99.90
13896;DHT22;7018;50.838;4.226;2022-08-21T17:11:51;24.20;99.90
13896;DHT22;7018;50.838;4.226;2022-08-21T17:14:20;24.10;99.90
13896;DHT22;7018;50.838;4.226;2022-08-21T17:16:53;24.10;99.90
13896;DHT22;7018;50.838;4.226;2022-08-21T17:19:21;24.10;99.90
13896;DHT22;7018;50.838;4.226;2022-08-21T17:21:48;24.10;99.90
13896;DHT22;7018;50.838;4.226;2022-08-21T17:24:16;24.10;99.90
13896;DHT22;7018;50.838;4.226;2022-08-21T17:26:44;24.10;99.90
13896;DHT22;7018;50.838;4.226;2022-08-21T17:29:13;24.00;99.90
13896;DHT22;7018;50.838;4.226;2022-08-21T17:31:43;24.00;99.90
13896;DHT22;7018;50.838;4.226;2022-08-21T17:34:11;23.80;99.90